This is the latest recevied weather packets stored in our database for station/object F5GJJ-13. If no packets are shown the sender has not sent any weather packets the latest 1 day(s).
| Time | Temp. | Humidity | Pressure | Rain* | Wind** | Luminosity | Snow |
|---|---|---|---|---|---|---|---|
| 1777997592 | 20.56° C | 71% | 1010.6 hPa | 0 mm | 1.34 m/s, 253° | - | - |
| 1777996633 | 19.44° C | 72% | 1010.6 hPa | 0 mm | 0.89 m/s, 219° | - | - |
| 1777996557 | 19.44° C | 72% | 1010.6 hPa | 0 mm | 0.45 m/s, 205° | - | - |
| 1777995671 | 20° C | 69% | 1010.6 hPa | 0 mm | 0.45 m/s, 249° | - | - |
| 1777994758 | 20.56° C | 68% | 1011.6 hPa | 0 mm | 0 m/s | - | - |
| 1777994713 | 20.56° C | 68% | 1011.6 hPa | 0 mm | 0 m/s | - | - |
| 1777993752 | 20.56° C | 67% | 1011.6 hPa | 0 mm | 0.89 m/s, 160° | - | - |
| 1777992957 | 21.11° C | 66% | 1010.6 hPa | 0 mm | 0.89 m/s, 142° | - | - |
| 1777992792 | 21.11° C | 66% | 1010.6 hPa | 0 mm | 0.89 m/s, 133° | - | - |
| 1777991833 | 21.11° C | 66% | 1010.6 hPa | 0 mm | 0 m/s | - | - |
| 1777991158 | 20.56° C | 65% | 1010.6 hPa | 0 mm | 0.45 m/s, 97° | - | - |
| 1777990871 | 20.56° C | 66% | 1010.6 hPa | 0 mm | 0.45 m/s, 73° | - | - |
| 1777989913 | 21.11° C | 69% | 1010.6 hPa | 0 mm | 0.45 m/s, 109° | - | - |
| 1777989358 | 20.56° C | 68% | 1010.6 hPa | 0 mm | 0.45 m/s, 112° | - | - |
| 1777988953 | 20.56° C | 70% | 1010.6 hPa | 0 mm | 0.89 m/s, 141° | - | - |
| 1777987991 | 20.56° C | 69% | 1009.6 hPa | 0 mm | 0 m/s | - | - |
| 1777987558 | 20° C | 71% | 1009.6 hPa | 0 mm | 1.34 m/s, 103° | - | - |
| 1777987032 | 20° C | 73% | 1009.6 hPa | 0 mm | 1.34 m/s, 145° | - | - |
| 1777986071 | 19.44° C | 73% | 1010.6 hPa | 0 mm | 0.45 m/s, 140° | - | - |
| 1777985757 | 20° C | 75% | 1010.6 hPa | 0 mm | 0.89 m/s, 118° | - | - |
| 1777985113 | 19.44° C | 75% | 1010.6 hPa | 0 mm | 0 m/s | - | - |
| 1777984151 | 20° C | 77% | 1009.6 hPa | 0 mm | 0 m/s | - | - |
| 1777983958 | 19.44° C | 76% | 1009.6 hPa | 0 mm | 0.45 m/s, 83° | - | - |
| 1777983260 | 20° C | 78% | 1009.6 hPa | 0 mm | 0.89 m/s, 129° | - | - |
| 1777983192 | 20° C | 78% | 1009.6 hPa | 0 mm | 0.89 m/s, 129° | - | - |
* Rain latest hour (hover to see other rain measurements)
** Current wind speed in m/s (hover to see current wind gust speed)